Here is the Quick Look data you requested

The Data originates at the National Weather Service, and is made available here by the UAlbany Department of Atmospheric and Environmental Sciences

Surface Observations

KCVG 220852Z 27006KT 7SM BKN070 OVC090 01/M01 A3011 RMK AO2 SLP201 T00061011
 55001=
KCVG 220952Z 27004KT 7SM FEW049 OVC055 01/M01 A3011 RMK AO2 SLP201 T00061011=
KCVG 221004Z 29003KT 5SM -SN BR BKN028 OVC050 01/M01 A3011 RMK AO2 SNB0957
 P0000 T00061006=
KCVG 221052Z 21004KT 7SM -SN SCT028 BKN047 OVC055 01/M01 A3012 RMK AO2 SLP203
 RAB09E22SNB0957E22B40 P0000 T00111006=
KCVG 221152Z 25003KT 9SM BKN042 OVC049 02/00 A3013 RMK AO2 SNE1056 SLP206
 BINOVC P0000 60000 70004 T00170000 10017 21006 53006=
KCVG 221252Z 25003KT 10SM SCT046 OVC080 03/01 A3014 RMK AO2 SLP211 BINOVC
 T00330006=
KCVG 221352Z 29005KT 10SM FEW042 BKN080 06/00 A3015 RMK AO2 SLP211 T00560000=
KCVG 221452Z 28011KT 10SM FEW030 BKN080 08/00 A3016 RMK AO2 SLP215 T00780000
 52009=
KCVG 221552Z 29011KT 10SM FEW043 SCT050 OVC065 08/M05 A3017 RMK AO2 SLP219 SHRA
 NE BINOVC T00781050=
KCVG 221652Z 29015G20KT 10SM SCT060 OVC080 09/M04 A3016 RMK AO2 SLP217
 T00891039=
KCVG 221752Z 27016G23KT 10SM BKN065 BKN080 09/M06 A3015 RMK AO2 SLP213
 T00891056 10100 20017 58002=
KCVG 221852Z 26012KT 10SM BKN070 11/M05 A3015 RMK AO2 PK WND 31028/1808 SLP211
 T01061050=
KCVG 221952Z 30013KT 10SM BKN070 12/M04 A3015 RMK AO2 SLP210 T01171039=
KCVG 222052Z 29014G17KT 10SM SCT070 11/M06 A3013 RMK AO2 SLP205 T01061056 58007=
KCVG 222152Z 29011G21KT 10SM SCT070 11/M06 A3012 RMK AO2 SLP201 T01111056=
KCVG 222252Z 30008KT 10SM FEW070 11/M06 A3012 RMK AO2 SLP202 T01111056=
KCVG 222352Z 29007KT 10SM CLR 10/M06 A3012 RMK AO2 SLP202 T01001056 10122 20094
 56003=
KCVG 230052Z 31004KT 10SM CLR 08/M05 A3013 RMK AO2 SLP205 T00831050=
KCVG 230152Z 30003KT 10SM CLR 07/M04 A3015 RMK AO2 SLP212 T00671044=
KCVG 230252Z 22003KT 10SM CLR 03/M04 A3016 RMK AO2 SLP214 T00331044 51012=
KCVG 230352Z 18003KT 10SM CLR 03/M03 A3015 RMK AO2 SLP213 T00281028=
KCVG 230452Z 00000KT 10SM CLR 03/M03 A3015 RMK AO2 SLP211 T00281028 401221006=
KCVG 230552Z 20003KT 10SM CLR 02/M03 A3016 RMK AO2 SLP213 T00221033 10094 20017
 55000=
KCVG 230652Z 19003KT 10SM FEW250 01/M03 A3014 RMK AO2 SLP209 T00111028=
KCVG 230752Z 19003KT 10SM FEW250 01/M03 A3013 RMK AO2 SLP205 T00061028=
KCVG 230852Z 20003KT 10SM BKN220 OVC250 01/M03 A3013 RMK AO2 SLP205 T00111028
 56008=